Bar Harbor, ME

7:33 AM EDT on September 27, 2016 (GMT -0400)
College of the Atlantic | | Change Station

Elev 52 ft 44.39 °N, 68.22 °W | Updated 2 seconds ago

Overcast
Overcast
60.2 °F
Feels Like 60.2 °F
N
2.8
Wind Variable Wind from ESE
Gusts 3.0 mph

Today
High -- | Low -- °F
--% Chance of Precip.
Yesterday
High -- | Low -- °F
Precip. -- in
Pressure 29.91 in
Visibility 10.0 miles
Clouds Mostly Cloudy 2600 ft
Overcast 5000 ft
Dew Point 55 °F
Humidity 85%
Rainfall 0.00 in
Snow Depth Not available.
6:26 AM 6:20 PM
Waning Crescent, 12% visible
SPECI KBGR 271114Z 21004KT 10SM BKN026 OVC050 13/10 A2991 RMK AO2 T01280100
Pressure 29.91 in
Visibility 10.0 miles
Clouds Mostly Cloudy 2600 ft
Overcast 5000 ft
Dew Point 55 °F
Humidity 85%
Rainfall 0.00 in
Snow Depth Not available.
6:26 AM 6:20 PM
Waning Crescent, 12% visible
SPECI KBGR 271114Z 21004KT 10SM BKN026 OVC050 13/10 A2991 RMK AO2 T01280100

10-Day Weather Forecast

Almanac

Astronomy

Sep. 27, 2016 Rise Set
Actual Time
Civil Twilight
Nautical Twilight
Astronomical Twilight
Moon
Length of Visible Light
Length of Day
Tomorrow will be .
, % of the Moon is Illuminated

Today's Extremes

State Highs State Lows

Community

WunderPhotos

Upload Photos

1,942,058 photos uploaded!

WunderBlog® & News

Nearby

Air Quality

  Air Quality AQ Index Pollutant
Not available.

Snow Depth

Station Depth Elevation

Earthquake Activity

City Distance Mag. Time & Date
Minimum magnitude displayed is 2.5.

Coastal Water Temperatures

Place Temperature

Stations

Nearby Weather Stations

Station Location Temp. Windchill Dew Point Humidity Wind Precip. Elev Updated Type
                   

Watches & Warnings

There are currently no watches in effect.